Time;durP1;ratioP1;P1;durP2;ratioP2;P2;SDS_P1;SDS_P2;PMS_P1;PMS_P2;Temp;Humidity;BMP_temperature;BMP_pressure;BME280_temperature;BME280_humidity;BME280_pressure;Samples;Min_cycle;Max_cycle;Signal;HPM_P1;HPM_P2
2022/05/27 00:01:21;;;;;;;6.15;4.03;;;;;;;9.87;86.89;97243.09;5014474;28;20045;-62
2022/05/27 00:03:47;;;;;;;;;;;;;;;9.87;87.09;97240.44;5014662;28;20140;-63
2022/05/27 00:06:13;;;;;;;6.80;5.38;;;;;;;9.83;87.25;97247.38;5013588;28;20016;-63
2022/05/27 00:08:39;;;;;;;7.63;5.22;;;;;;;9.85;87.83;97241.78;5014059;28;20038;-63
2022/05/27 00:11:06;;;;;;;6.55;5.53;;;;;;;9.87;88.95;97239.66;5012874;28;20591;-63
2022/05/27 00:13:32;;;;;;;7.50;6.03;;;;;;;9.83;88.70;97244.75;4996411;28;20128;-63
2022/05/27 00:15:58;;;;;;;7.70;6.03;;;;;;;9.81;88.41;97238.16;5013962;28;20096;-63
2022/05/27 00:18:24;;;;;;;10.20;7.68;;;;;;;9.82;89.05;97243.16;5013791;28;20499;-64
2022/05/27 00:20:50;;;;;;;9.48;7.35;;;;;;;9.85;87.80;97242.56;5013839;28;20088;-64
2022/05/27 00:23:16;;;;;;;8.15;6.85;;;;;;;9.87;87.54;97245.72;5014203;28;20406;-63
2022/05/27 00:25:42;;;;;;;8.30;5.43;;;;;;;9.89;88.15;97240.94;5013764;28;20037;-64
2022/05/27 00:28:08;;;;;;;8.85;5.90;;;;;;;9.89;88.60;97248.09;4994053;28;20058;-63
2022/05/27 00:30:34;;;;;;;7.35;5.63;;;;;;;9.92;88.65;97242.25;5013325;28;20038;-64
2022/05/27 00:33:00;;;;;;;6.78;5.13;;;;;;;9.91;88.28;97246.75;5013848;28;20046;-63
2022/05/27 00:35:26;;;;;;;7.25;5.45;;;;;;;9.92;88.40;97256.25;5013858;28;20499;-63
2022/05/27 00:37:52;;;;;;;4.55;4.15;;;;;;;9.87;88.38;97274.84;5013585;28;20479;-64
2022/05/27 00:40:18;;;;;;;4.95;4.00;;;;;;;9.87;88.88;97266.91;5013781;28;20054;-64
2022/05/27 00:42:46;;;;;;;5.68;3.55;;;;;;;9.77;88.92;97262.53;5013342;28;20065;-63
2022/05/27 00:45:20;;;;;;;5.15;4.40;;;;;;;9.78;90.43;97250.88;4996006;28;20565;-64
2022/05/27 00:47:50;;;;;;;2.75;2.42;;;;;;;9.77;88.87;97246.66;5013558;28;20077;-62
2022/05/27 00:50:17;;;;;;;3.08;2.20;;;;;;;9.71;88.86;97260.25;4996467;28;20042;-62
2022/05/27 00:52:43;;;;;;;2.90;2.15;;;;;;;9.71;88.79;97254.94;4995352;28;20045;-63
2022/05/27 00:55:14;;;;;;;2.20;2.00;;;;;;;9.67;88.79;97254.72;5013465;28;20053;-63
2022/05/27 00:58:10;;;;;;;2.28;2.08;;;;;;;9.67;89.58;97241.47;5013234;28;20092;-64
2022/05/27 01:00:37;;;;;;;8.18;4.68;;;;;;;9.68;89.35;97234.34;4994495;28;20470;-63
2022/05/27 01:03:03;;;;;;;6.82;4.30;;;;;;;9.67;89.74;97246.78;5012579;28;20068;-63
2022/05/27 01:05:29;;;;;;;5.85;3.85;;;;;;;9.67;89.49;97246.78;5011290;28;20053;-64
2022/05/27 01:08:02;;;;;;;6.00;4.10;;;;;;;9.67;89.46;97241.47;5011753;28;20053;-64
2022/05/27 01:10:32;;;;;;;3.28;2.80;;;;;;;9.65;88.93;97245.50;5028254;28;20050;-65
2022/05/27 01:13:19;;;;;;;4.97;3.60;;;;;;;9.62;88.53;97232.81;5028132;28;20054;-63
2022/05/27 01:15:56;;;;;;;6.25;4.50;;;;;;;9.64;89.34;97236.75;5012317;28;20046;-62
2022/05/27 01:21:37;;;;;;;9.93;5.93;;;;;;;9.64;88.69;97215.59;5025666;28;20056;-63
2022/05/27 01:24:17;;;;;;;7.38;5.72;;;;;;;9.66;88.24;97220.63;5012549;28;20041;-63
2022/05/27 01:27:07;;;;;;;6.50;4.93;;;;;;;9.61;88.21;97224.09;5011405;28;20073;-63
2022/05/27 01:30:00;;;;;;;6.43;4.22;;;;;;;9.59;87.41;97228.09;5012366;28;20052;-63
2022/05/27 01:32:51;;;;;;;6.13;4.40;;;;;;;9.62;88.00;97227.53;5012335;28;20099;-63
2022/05/27 01:35:28;;;;;;;4.32;3.35;;;;;;;9.62;87.59;97224.88;5012515;28;20049;-63
2022/05/27 01:38:00;;;;;;;4.00;2.97;;;;;;;9.61;87.28;97229.38;5012784;28;20096;-63
2022/05/27 01:41:09;;;;;;;5.22;3.28;;;;;;;9.62;87.90;97223.06;5012362;28;20041;-63
2022/05/27 01:43:48;;;;;;;3.63;2.90;;;;;;;9.63;86.99;97223.84;4935783;29;20102;-64
2022/05/27 01:46:22;;;;;;;3.45;3.00;;;;;;;9.59;87.19;97214.88;4935805;29;20059;-63
2022/05/27 01:48:56;;;;;;;4.65;3.90;;;;;;;9.59;87.24;97213.03;4954227;28;20050;-62
2022/05/27 01:51:26;;;;;;;6.15;3.97;;;;;;;9.58;87.67;97218.59;4995741;28;20152;-62
2022/05/27 01:53:59;;;;;;;5.65;4.38;;;;;;;9.58;87.77;97213.31;5027327;28;20046;-63
2022/05/27 01:56:25;;;;;;;6.35;4.53;;;;;;;9.59;87.74;97215.69;5011922;28;20526;-63
2022/05/27 01:58:55;;;;;;;4.80;4.28;;;;;;;9.62;87.51;97219.59;5012255;28;20074;-63
2022/05/27 02:01:26;;;;;;;10.55;6.25;;;;;;;9.63;87.35;97214.03;5004172;28;20038;-62
2022/05/27 02:03:52;;;;;;;;;;;;;;;9.67;88.01;97214.25;4984591;28;20108;-63
2022/05/27 02:06:34;;;;;;;7.80;4.75;;;;;;;9.67;87.25;97215.03;4991437;28;19929;-62
2022/05/27 02:09:25;;;;;;;11.20;7.80;;;;;;;9.71;87.22;97218.69;4975236;28;20053;-62
2022/05/27 02:11:56;;;;;;;8.95;6.63;;;;;;;9.74;87.38;97223.41;4966969;28;20054;-62
2022/05/27 02:14:29;;;;;;;6.78;5.07;;;;;;;9.77;87.32;97222.06;5007880;28;20041;-61
2022/05/27 02:17:03;;;;;;;8.98;5.90;;;;;;;9.80;87.04;97229.44;4994234;28;20500;-62
2022/05/27 02:19:33;;;;;;;10.02;7.20;;;;;;;9.83;87.29;97220.16;4994346;28;20046;-63
2022/05/27 02:22:06;;;;;;;9.65;6.95;;;;;;;9.91;87.12;97222.94;4994120;28;20046;-62
2022/05/27 02:24:45;;;;;;;10.05;6.47;;;;;;;9.94;86.42;97219.72;4994302;28;20439;-63
2022/05/27 02:27:19;;;;;;;10.43;7.55;;;;;;;9.97;86.60;97228.91;4994376;28;20502;-62
2022/05/27 02:29:48;;;;;;;11.95;8.20;;;;;;;10.00;86.80;97223.88;4994417;28;20522;-64
2022/05/27 02:32:20;;;;;;;13.93;9.20;;;;;;;9.98;86.21;97215.41;4994066;28;20096;-63
2022/05/27 02:35:08;;;;;;;9.65;7.47;;;;;;;9.91;85.36;97209.72;5010672;28;20119;-62
2022/05/27 02:37:44;;;;;;;11.70;7.88;;;;;;;10.00;85.78;97229.16;4995547;28;20041;-64
2022/05/27 02:40:24;;;;;;;7.32;5.35;;;;;;;9.95;85.50;97223.94;5011642;28;20569;-64
2022/05/27 02:42:56;;;;;;;7.78;5.72;;;;;;;10.01;85.71;97224.66;4993790;28;20050;-64
2022/05/27 02:45:40;;;;;;;7.40;5.50;;;;;;;10.01;85.52;97229.94;5011831;28;20049;-63
2022/05/27 02:48:12;;;;;;;9.80;6.97;;;;;;;10.02;84.58;97227.00;5010125;28;20048;-63
2022/05/27 02:50:56;;;;;;;6.10;4.82;;;;;;;10.07;84.97;97220.84;5011778;28;20076;-64
2022/05/27 02:53:55;;;;;;;5.47;4.32;;;;;;;10.09;84.41;97224.00;5011447;28;20046;-63
2022/05/27 02:56:31;;;;;;;7.97;5.43;;;;;;;10.12;84.45;97220.78;4981068;28;20045;-63
2022/05/27 02:58:56;;;;;;;10.40;7.65;;;;;;;10.16;84.79;97218.34;4994110;28;20044;-62
2022/05/27 03:01:22;;;;;;;6.60;5.90;;;;;;;10.21;85.02;97226.22;5009709;28;20041;-63
2022/05/27 03:03:48;;;;;;;5.28;4.13;;;;;;;10.22;84.80;97219.84;5011085;28;20547;-62
2022/05/27 03:06:41;;;;;;;6.60;5.07;;;;;;;10.23;84.98;97216.91;5011542;28;20038;-63
2022/05/27 03:09:16;;;;;;;8.75;6.55;;;;;;;10.29;83.79;97216.84;5026201;28;20552;-62
2022/05/27 03:12:05;;;;;;;8.00;5.70;;;;;;;10.35;84.34;97223.66;5009961;28;20488;-63
2022/05/27 03:14:59;;;;;;;9.88;6.85;;;;;;;10.42;83.78;97219.56;5011349;28;20184;-64
2022/05/27 03:17:56;;;;;;;7.30;6.35;;;;;;;10.49;84.57;97221.84;5010258;28;20065;-63
2022/05/27 03:20:30;;;;;;;4.35;3.95;;;;;;;10.59;83.97;97220.88;5011512;28;20042;-62
2022/05/27 03:23:33;;;;;;;6.00;4.38;;;;;;;10.61;83.80;97222.16;4991804;28;20046;-64
2022/05/27 03:26:01;;;;;;;4.80;3.85;;;;;;;10.67;83.59;97218.34;5011291;28;20049;-63
2022/05/27 03:28:28;;;;;;;3.85;3.08;;;;;;;10.65;82.44;97222.41;4977541;28;20073;-63
2022/05/27 03:31:00;;;;;;;4.10;3.70;;;;;;;10.66;82.14;97224.75;4993304;28;20045;-63
2022/05/27 03:33:35;;;;;;;3.92;3.05;;;;;;;10.75;82.21;97224.88;5010422;28;20057;-62
2022/05/27 03:36:19;;;;;;;3.28;2.97;;;;;;;10.76;81.59;97223.00;5026526;28;20046;-64
2022/05/27 03:39:06;;;;;;;3.67;3.20;;;;;;;10.82;82.12;97216.53;5009779;28;20442;-63
2022/05/27 03:41:35;;;;;;;4.05;3.45;;;;;;;10.83;80.56;97216.25;5009483;28;20507;-63
2022/05/27 03:44:02;;;;;;;5.30;4.55;;;;;;;10.86;80.40;97214.88;5009337;28;20128;-63
2022/05/27 03:46:37;;;;;;;6.15;5.05;;;;;;;10.94;80.52;97213.41;4994226;28;20515;-63
2022/05/27 03:49:04;;;;;;;5.80;4.32;;;;;;;10.97;79.52;97218.94;4996852;28;20057;-64
2022/05/27 03:51:34;;;;;;;7.35;5.22;;;;;;;10.99;80.48;97219.41;5014303;28;20203;-63
2022/05/27 03:54:06;;;;;;;6.82;5.75;;;;;;;11.06;80.08;97219.00;5012823;28;20041;-63
2022/05/27 03:56:37;;;;;;;7.82;6.40;;;;;;;11.06;80.47;97222.47;5014460;28;20547;-63
2022/05/27 03:59:04;;;;;;;5.70;5.07;;;;;;;11.11;80.60;97208.31;5013261;28;20038;-64
2022/05/27 04:01:31;;;;;;;5.18;3.75;;;;;;;11.15;80.84;97214.63;4996555;28;20124;-64
2022/05/27 04:03:59;;;;;;;3.50;3.20;;;;;;;11.16;80.33;97212.75;5014357;28;20045;-63
2022/05/27 04:06:27;;;;;;;4.13;3.33;;;;;;;11.14;80.03;97223.63;5014265;28;20053;-66
2022/05/27 04:08:57;;;;;;;3.97;3.17;;;;;;;11.17;80.04;97217.75;5014004;28;20042;-66
2022/05/27 04:11:23;;;;;;;5.47;3.58;;;;;;;11.14;81.29;97210.38;4996605;28;20038;-66
2022/05/27 04:13:49;;;;;;;4.68;3.35;;;;;;;11.17;81.57;97206.34;4994379;28;20042;-65
2022/05/27 04:16:16;;;;;;;4.95;3.00;;;;;;;11.10;81.49;97204.09;4976926;28;20393;-67
2022/05/27 04:18:42;;;;;;;5.63;3.50;;;;;;;11.18;81.00;97215.88;5001477;28;20048;-66
2022/05/27 04:21:08;;;;;;;3.70;3.10;;;;;;;11.11;81.53;97211.75;4996145;28;20233;-66
2022/05/27 04:23:34;;;;;;;3.72;3.33;;;;;;;11.11;82.60;97210.97;5013704;28;20416;-66
2022/05/27 04:26:00;;;;;;;4.75;3.70;;;;;;;11.00;83.00;97207.75;5013206;28;20045;-67
2022/05/27 04:28:25;;;;;;;4.72;3.70;;;;;;;10.94;82.94;97216.84;4995713;28;20054;-66
2022/05/27 04:30:51;;;;;;;5.03;3.63;;;;;;;10.90;84.98;97211.34;5011180;28;20038;-64
2022/05/27 04:33:17;;;;;;;4.22;3.20;;;;;;;10.93;83.80;97209.97;5013965;28;20050;-66
2022/05/27 04:35:43;;;;;;;4.13;3.40;;;;;;;10.98;83.47;97212.53;5012347;28;20045;-65
2022/05/27 04:38:09;;;;;;;6.68;3.30;;;;;;;11.09;83.38;97215.81;5013616;28;20045;-64
2022/05/27 04:40:35;;;;;;;3.50;2.90;;;;;;;11.22;83.75;97214.22;5013569;28;20503;-65
2022/05/27 04:43:02;;;;;;;2.80;2.60;;;;;;;11.33;81.79;97221.69;5013428;28;20038;-65
2022/05/27 04:45:29;;;;;;;3.35;2.75;;;;;;;11.39;82.39;97211.00;5012097;28;20069;-64
2022/05/27 04:47:54;;;;;;;3.35;3.03;;;;;;;11.56;82.87;97211.97;4995879;28;20116;-64
2022/05/27 04:50:20;;;;;;;4.35;3.00;;;;;;;11.72;81.71;97212.44;5012515;28;20512;-65
2022/05/27 04:52:46;;;;;;;3.05;2.75;;;;;;;11.86;80.87;97212.44;5013428;28;20165;-64
2022/05/27 04:55:14;;;;;;;3.78;3.22;;;;;;;12.00;81.25;97207.88;5012146;28;20233;-64
2022/05/27 04:57:53;;;;;;;4.03;3.10;;;;;;;12.14;79.96;97209.69;5012949;28;20061;-64
2022/05/27 05:00:34;;;;;;;5.63;2.90;;;;;;;12.37;78.99;97213.94;5012685;28;20132;-66
2022/05/27 05:03:00;;;;;;;3.50;2.95;;;;;;;12.52;77.67;97206.69;5011752;28;20065;-66
2022/05/27 05:05:28;;;;;;;3.65;3.17;;;;;;;12.64;76.79;97213.00;5011824;28;20069;-64
2022/05/27 05:08:02;;;;;;;3.20;2.90;;;;;;;12.66;76.32;97218.81;5013107;28;20045;-66
2022/05/27 05:10:29;;;;;;;3.45;3.15;;;;;;;12.71;75.43;97223.25;5012854;28;20191;-66
2022/05/27 05:12:55;;;;;;;2.92;2.63;;;;;;;12.68;74.52;97221.97;5013036;28;20050;-66
2022/05/27 05:15:21;;;;;;;3.33;2.78;;;;;;;12.71;75.18;97225.91;5012683;28;20044;-72
2022/05/27 05:17:47;;;;;;;5.53;3.97;;;;;;;12.75;75.35;97223.41;5011104;28;20048;-66
2022/05/27 05:20:15;;;;;;;4.05;3.22;;;;;;;12.72;73.74;97227.47;5012739;28;20414;-65
2022/05/27 05:22:41;;;;;;;4.10;3.30;;;;;;;12.53;74.50;97226.84;5011998;28;20050;-66
2022/05/27 05:25:08;;;;;;;5.38;3.50;;;;;;;12.45;74.44;97221.19;5011516;28;20049;-65
2022/05/27 05:27:34;;;;;;;4.47;3.72;;;;;;;12.47;73.87;97234.97;5012795;28;20042;-66
2022/05/27 05:30:01;;;;;;;3.83;3.42;;;;;;;12.48;74.03;97233.88;5012671;28;20502;-66
2022/05/27 05:32:28;;;;;;;4.28;3.47;;;;;;;12.55;73.93;97230.00;5012372;28;20115;-66
2022/05/27 05:34:54;;;;;;;3.63;3.33;;;;;;;12.57;73.76;97239.25;5012172;28;20053;-67
2022/05/27 05:37:20;;;;;;;3.90;3.55;;;;;;;12.54;73.84;97231.09;5012301;28;20401;-67
2022/05/27 05:39:46;;;;;;;5.55;4.18;;;;;;;12.52;73.74;97235.94;5010692;28;20091;-66
2022/05/27 05:42:12;;;;;;;4.40;4.00;;;;;;;12.49;74.13;97232.00;5012281;28;20045;-67
2022/05/27 05:44:38;;;;;;;4.90;3.65;;;;;;;12.53;72.92;97235.63;5012041;28;20526;-67
2022/05/27 05:47:04;;;;;;;4.20;3.80;;;;;;;12.54;72.50;97233.75;5012096;28;20045;-66
2022/05/27 05:49:30;;;;;;;4.20;3.80;;;;;;;12.44;72.87;97240.06;5011601;28;20042;-66
2022/05/27 05:51:59;;;;;;;4.90;3.95;;;;;;;12.41;73.20;97230.06;5012118;28;20058;-66
2022/05/27 05:54:26;;;;;;;4.47;4.00;;;;;;;12.44;73.06;97235.56;5011885;28;20523;-67
2022/05/27 05:56:52;;;;;;;4.43;4.03;;;;;;;12.56;73.27;97221.75;5011394;28;20128;-66
2022/05/27 05:59:19;;;;;;;4.47;3.47;;;;;;;12.78;71.94;97236.09;4994451;28;20046;-69
2022/05/27 06:01:45;;;;;;;5.30;3.92;;;;;;;13.01;72.04;97232.31;5011913;28;20100;-66
2022/05/27 06:04:11;;;;;;;4.43;3.72;;;;;;;13.26;71.54;97232.75;5010639;28;20054;-66
2022/05/27 06:06:37;;;;;;;5.45;3.88;;;;;;;13.34;71.45;97237.34;5012002;28;20062;-67
2022/05/27 06:09:04;;;;;;;4.32;3.92;;;;;;;13.45;70.04;97238.63;4996214;28;20073;-67
2022/05/27 06:11:30;;;;;;;5.78;4.20;;;;;;;13.39;69.56;97245.19;5011788;28;20045;-67
2022/05/27 06:13:55;;;;;;;4.50;3.60;;;;;;;13.38;68.80;97244.41;5011753;28;20143;-66
2022/05/27 06:16:21;;;;;;;4.78;4.30;;;;;;;13.38;68.41;97247.06;5007556;28;20117;-66
2022/05/27 06:18:48;;;;;;;5.80;3.70;;;;;;;13.55;68.23;97250.88;5011441;28;20033;-66
2022/05/27 06:21:13;;;;;;;7.07;3.80;;;;;;;13.77;67.46;97244.66;5017486;28;20140;-66
2022/05/27 06:23:39;;;;;;;4.63;3.85;;;;;;;13.88;67.69;97245.16;5009979;28;20037;-66
2022/05/27 06:26:08;;;;;;;4.75;4.03;;;;;;;13.88;66.20;97250.47;5010888;28;20519;-67
2022/05/27 06:36:53;;;;;;;4.05;3.25;;;;;;;14.34;64.01;97252.56;4996766;28;20050;-65
2022/05/27 06:39:21;;;;;;;4.10;3.05;;;;;;;14.10;62.90;97253.03;5009796;28;20038;-65
2022/05/27 06:41:47;;;;;;;3.00;2.70;;;;;;;13.67;62.42;97256.38;5010224;28;20077;-69
2022/05/27 06:44:13;;;;;;;4.05;3.05;;;;;;;13.34;65.12;97255.97;5010789;28;20120;-68
2022/05/27 06:46:40;;;;;;;3.67;2.75;;;;;;;13.36;66.73;97264.44;5010297;28;20566;-68
2022/05/27 06:49:06;;;;;;;4.63;3.60;;;;;;;13.40;66.58;97276.00;5010053;28;20100;-67
2022/05/27 06:51:41;;;;;;;5.25;3.38;;;;;;;13.53;67.53;97271.66;5011144;28;20045;-67
2022/05/27 06:54:09;;;;;;;5.70;3.22;;;;;;;13.66;66.51;97281.44;5009894;28;20461;-67
2022/05/27 06:56:37;;;;;;;3.45;2.80;;;;;;;13.24;66.01;97272.94;5010427;28;20096;-66
2022/05/27 06:59:03;;;;;;;2.85;2.65;;;;;;;13.14;65.98;97289.94;5008864;28;20155;-66
2022/05/27 07:01:29;;;;;;;4.15;2.70;;;;;;;13.10;65.91;97278.34;5009310;28;20383;-66
2022/05/27 07:03:55;;;;;;;3.15;2.85;;;;;;;13.27;66.17;97268.94;5009503;28;20064;-65
2022/05/27 07:06:24;;;;;;;5.55;2.70;;;;;;;13.50;65.14;97277.63;4982772;28;20037;-65
2022/05/27 07:08:49;;;;;;;4.05;3.10;;;;;;;13.61;65.13;97277.03;4999909;28;20053;-67
2022/05/27 07:11:15;;;;;;;3.45;3.03;;;;;;;13.94;64.07;97278.53;5012421;28;20042;-65
2022/05/27 07:13:41;;;;;;;3.58;2.85;;;;;;;14.25;63.70;97281.88;4990675;28;20041;-66
2022/05/27 07:16:07;;;;;;;3.22;2.92;;;;;;;14.47;63.97;97269.47;5011066;28;20034;-65
2022/05/27 07:18:33;;;;;;;6.15;3.30;;;;;;;14.62;63.17;97281.56;4992840;28;20128;-64
2022/05/27 07:21:01;;;;;;;4.32;3.35;;;;;;;14.70;63.33;97281.56;4994410;28;20044;-66
2022/05/27 07:23:26;;;;;;;4.55;3.20;;;;;;;14.66;61.79;97285.97;4986514;28;20077;-65
2022/05/27 07:25:52;;;;;;;3.40;2.80;;;;;;;14.62;61.74;97285.06;4988546;28;20140;-66
2022/05/27 07:28:18;;;;;;;3.60;3.10;;;;;;;14.71;61.58;97285.81;5008014;28;20331;-68
2022/05/27 07:30:43;;;;;;;3.97;3.20;;;;;;;14.59;61.46;97288.34;5012327;28;20046;-69
2022/05/27 07:33:09;;;;;;;3.45;2.80;;;;;;;14.62;60.47;97286.91;5015086;28;20054;-66
2022/05/27 07:35:35;;;;;;;3.50;2.60;;;;;;;14.47;59.56;97294.28;5008866;28;20407;-64
2022/05/27 07:38:01;;;;;;;3.88;2.83;;;;;;;14.32;60.90;97290.19;5014348;28;20042;-63
2022/05/27 07:40:27;;;;;;;4.28;3.13;;;;;;;14.31;61.91;97285.94;5004040;28;20042;-65
2022/05/27 07:42:53;;;;;;;3.85;3.45;;;;;;;14.41;61.75;97294.72;4989981;28;20088;-65
2022/05/27 07:45:26;;;;;;;4.15;3.40;;;;;;;14.56;61.44;97294.31;5013501;28;20057;-66
2022/05/27 07:47:53;;;;;;;3.17;2.88;;;;;;;14.88;59.54;97284.22;5013059;28;20045;-67
2022/05/27 07:50:20;;;;;;;4.32;2.67;;;;;;;15.02;58.94;97289.38;5014240;28;20046;-66
2022/05/27 07:52:46;;;;;;;5.03;2.40;;;;;;;15.16;58.65;97289.97;4996206;28;20046;-64
2022/05/27 07:55:12;;;;;;;2.92;2.58;;;;;;;15.15;58.29;97289.19;5013991;28;20180;-66
2022/05/27 07:57:46;;;;;;;4.63;3.00;;;;;;;15.34;58.43;97296.81;5013748;28;20054;-67
2022/05/27 08:00:16;;;;;;;3.25;2.90;;;;;;;15.72;58.55;97293.41;5013460;28;20518;-65
2022/05/27 08:02:42;;;;;;;;;;;;;;;16.09;56.47;97294.47;5013420;28;20057;-66
2022/05/27 08:05:15;;;;;;;4.22;2.80;;;;;;;16.26;56.36;97290.88;5013787;28;20395;-65
2022/05/27 08:07:41;;;;;;;4.82;2.70;;;;;;;16.08;57.23;97287.53;5013636;28;20092;-66
2022/05/27 08:10:08;;;;;;;3.10;2.80;;;;;;;16.18;56.50;97285.59;4996287;28;20458;-65
2022/05/27 08:12:34;;;;;;;3.30;2.80;;;;;;;16.30;56.12;97294.50;5013863;28;20042;-64
2022/05/27 08:14:59;;;;;;;3.30;3.00;;;;;;;16.52;55.34;97279.22;5012314;28;20442;-65
2022/05/27 08:17:25;;;;;;;3.90;2.80;;;;;;;16.63;55.08;97295.66;4987481;28;20053;-63
2022/05/27 08:19:52;;;;;;;2.78;2.58;;;;;;;16.67;55.01;97294.66;5013075;28;20052;-65
2022/05/27 08:22:18;;;;;;;4.97;3.03;;;;;;;16.76;55.55;97292.72;5012473;28;20046;-66
2022/05/27 08:24:44;;;;;;;3.35;2.92;;;;;;;16.88;55.49;97283.94;5011966;28;20066;-67
2022/05/27 08:27:10;;;;;;;2.85;2.65;;;;;;;16.90;55.58;97295.13;4991452;28;20740;-65
2022/05/27 08:29:36;;;;;;;4.18;3.17;;;;;;;16.74;56.03;97297.59;4991987;28;20034;-65
2022/05/27 08:32:03;;;;;;;3.78;3.38;;;;;;;16.47;56.36;97298.94;5008588;28;20053;-66
2022/05/27 08:40:26;;;;;;;4.07;3.15;;;;;;;15.87;58.16;97295.53;4993653;28;20038;-65
2022/05/27 08:43:10;;;;;;;3.88;3.40;;;;;;;15.86;58.36;97298.53;4976183;28;20104;-65
2022/05/27 08:45:42;;;;;;;5.25;3.30;;;;;;;16.07;58.31;97306.59;4976033;28;20038;-66
2022/05/27 08:48:09;;;;;;;4.45;3.30;;;;;;;16.40;57.82;97305.91;4993632;28;20054;-65
2022/05/27 08:50:51;;;;;;;3.05;2.83;;;;;;;16.53;56.50;97308.31;4958614;28;20050;-66
2022/05/27 08:53:32;;;;;;;3.25;2.95;;;;;;;16.84;55.44;97309.03;4992861;28;20050;-66
2022/05/27 09:01:49;;;;;;;6.07;3.10;;;;;;;17.53;53.83;97311.00;4992788;28;20058;-65
2022/05/27 09:04:17;;;;;;;3.38;3.00;;;;;;;17.37;53.25;97313.53;4975850;28;20054;-65
2022/05/27 09:06:52;;;;;;;7.10;3.13;;;;;;;17.11;54.13;97315.69;4993160;28;20510;-65
2022/05/27 09:09:27;;;;;;;4.03;3.30;;;;;;;16.93;54.81;97310.50;4974735;28;20070;-66
2022/05/27 09:12:12;;;;;;;5.55;3.30;;;;;;;16.91;55.29;97309.28;4990499;28;20050;-66
2022/05/27 09:14:44;;;;;;;5.03;3.35;;;;;;;17.12;54.23;97314.56;4992772;28;20287;-62
2022/05/27 09:17:15;;;;;;;3.40;3.10;;;;;;;17.29;53.93;97313.63;4992295;28;20452;-67
2022/05/27 09:20:16;;;;;;;4.25;3.10;;;;;;;17.31;53.98;97314.84;4974319;28;20047;-63
2022/05/27 09:23:11;;;;;;;4.13;3.47;;;;;;;17.17;53.16;97311.69;4992506;28;20050;-67
2022/05/27 09:25:53;;;;;;;3.28;2.97;;;;;;;16.82;53.37;97322.72;4938172;28;20051;-63
2022/05/27 09:28:34;;;;;;;4.00;3.42;;;;;;;16.21;56.42;97320.50;5004299;28;20147;-65
2022/05/27 09:31:00;;;;;;;6.00;3.50;;;;;;;15.65;58.13;97320.59;4992576;28;20049;-67
2022/05/27 09:33:30;;;;;;;9.77;3.85;;;;;;;15.40;60.09;97327.59;5009393;28;20391;-66
2022/05/27 09:36:06;;;;;;;5.22;3.85;;;;;;;15.17;60.45;97331.56;4992503;28;20518;-65
2022/05/27 09:38:34;;;;;;;4.95;3.70;;;;;;;15.31;60.35;97331.38;5008923;28;20067;-66
2022/05/27 09:41:44;;;;;;;5.10;3.70;;;;;;;15.66;61.13;97335.50;5009518;28;20048;-66
2022/05/27 09:44:13;;;;;;;3.78;3.47;;;;;;;16.04;60.46;97333.97;5010513;28;20371;-66
2022/05/27 09:46:39;;;;;;;4.80;3.77;;;;;;;16.43;59.78;97331.97;5010418;28;20054;-66
2022/05/27 09:49:05;;;;;;;5.13;3.58;;;;;;;16.67;58.58;97337.47;4998745;28;20412;-65
2022/05/27 09:51:32;;;;;;;4.43;4.03;;;;;;;16.83;57.96;97345.72;5008681;28;20095;-67
2022/05/27 09:54:19;;;;;;;4.78;3.90;;;;;;;16.68;59.59;97348.97;5008800;28;20057;-64
2022/05/27 09:57:11;;;;;;;5.70;4.38;;;;;;;16.38;59.30;97349.00;5003254;28;20046;-67
2022/05/27 09:59:48;;;;;;;5.40;3.83;;;;;;;16.15;58.60;97351.19;4968483;28;20140;-65
2022/05/27 10:02:20;;;;;;;6.72;4.40;;;;;;;15.79;60.68;97355.13;5009253;28;20088;-65
2022/05/27 10:04:52;;;;;;;4.82;3.67;;;;;;;15.39;61.42;97359.94;5009103;28;20042;-65
2022/05/27 10:07:28;;;;;;;3.70;2.92;;;;;;;14.98;61.78;97377.28;5004636;28;20046;-65
2022/05/27 10:09:54;;;;;;;5.03;3.08;;;;;;;14.72;64.47;97385.28;5002096;28;20120;-65
2022/05/27 10:12:34;;;;;;;2.58;2.38;;;;;;;14.36;67.58;97369.53;4992517;28;20069;-66
2022/05/27 10:15:01;;;;;;;3.90;2.58;;;;;;;14.34;67.80;97371.72;4991432;28;20050;-66
2022/05/27 10:17:35;;;;;;;3.45;2.53;;;;;;;14.49;66.44;97377.38;4991070;28;20088;-66
2022/05/27 10:20:29;;;;;;;2.90;2.70;;;;;;;14.72;65.31;97379.94;4992012;28;20384;-66
2022/05/27 10:23:01;;;;;;;4.03;2.40;;;;;;;14.83;66.34;97381.19;5006806;28;20042;-66
2022/05/27 10:25:36;;;;;;;5.00;2.65;;;;;;;14.90;65.11;97372.72;4992009;28;20050;-66
2022/05/27 10:28:03;;;;;;;8.93;3.03;;;;;;;14.97;65.59;97371.16;4991220;28;20483;-66
2022/05/27 10:30:32;;;;;;;4.28;2.50;;;;;;;14.83;65.01;97377.75;5003751;28;20060;-65
2022/05/27 10:33:12;;;;;;;3.25;2.10;;;;;;;14.81;64.46;97375.38;4991635;28;20046;-66
2022/05/27 10:35:38;;;;;;;3.95;2.28;;;;;;;14.93;64.15;97377.44;4989483;28;20049;-66
2022/05/27 10:38:19;;;;;;;3.13;2.15;;;;;;;15.12;62.69;97366.44;5001555;28;20050;-66
2022/05/27 10:40:57;;;;;;;3.40;2.40;;;;;;;15.35;61.82;97373.16;4992054;28;20518;-67
2022/05/27 10:43:39;;;;;;;2.30;2.10;;;;;;;15.60;61.59;97362.72;4975443;28;20427;-67
2022/05/27 10:46:07;;;;;;;2.67;2.17;;;;;;;15.79;61.28;97376.50;4991406;28;20064;-66
2022/05/27 10:48:57;;;;;;;4.78;2.10;;;;;;;15.69;60.03;97370.72;4991926;28;20050;-67
2022/05/27 10:51:44;;;;;;;2.90;2.20;;;;;;;15.53;60.92;97367.75;5009142;28;20069;-67
2022/05/27 10:54:49;;;;;;;3.38;1.98;;;;;;;15.48;60.21;97363.38;5009515;28;20126;-66
2022/05/27 11:03:47;;;;;;;4.25;2.25;;;;;;;15.41;60.17;97368.41;4992211;28;20069;-67
2022/05/27 11:06:36;;;;;;;5.32;2.40;;;;;;;15.28;60.03;97375.50;4964981;28;20535;-67
2022/05/27 11:09:23;;;;;;;3.10;2.08;;;;;;;15.48;60.24;97383.97;4975835;28;20050;-67
2022/05/27 11:12:08;;;;;;;2.08;1.90;;;;;;;15.53;59.92;97371.22;5010958;28;20072;-67
2022/05/27 11:15:11;;;;;;;2.88;2.20;;;;;;;15.65;59.70;97379.34;5028799;28;20054;-66
2022/05/27 11:17:57;;;;;;;3.03;2.50;;;;;;;15.72;59.14;97386.91;5027452;28;20046;-69
2022/05/27 11:20:26;;;;;;;2.97;2.00;;;;;;;15.84;59.04;97395.03;4997865;28;20046;-68
2022/05/27 11:23:14;;;;;;;3.95;2.45;;;;;;;15.88;58.65;97389.81;5014597;28;20049;-68
2022/05/27 11:26:08;;;;;;;3.47;2.55;;;;;;;16.02;57.99;97386.94;5014205;28;20537;-65
2022/05/27 11:28:49;;;;;;;2.25;2.05;;;;;;;15.97;57.77;97395.94;4977001;28;20073;-65
2022/05/27 11:31:25;;;;;;;3.95;1.80;;;;;;;16.03;57.22;97391.97;5010532;28;20324;-65
2022/05/27 11:34:03;;;;;;;2.63;2.30;;;;;;;16.13;57.65;97398.84;5020398;28;20089;-64
2022/05/27 11:36:53;;;;;;;4.63;2.47;;;;;;;16.09;57.56;97381.88;5012678;28;20415;-65
2022/05/27 11:39:31;;;;;;;2.88;2.20;;;;;;;16.17;57.49;97391.72;4996099;28;20514;-64
2022/05/27 11:42:16;;;;;;;2.08;1.88;;;;;;;16.13;56.63;97396.94;4994136;28;20046;-65
2022/05/27 11:45:08;;;;;;;3.00;1.90;;;;;;;16.12;58.06;97397.28;4997515;28;20538;-64
2022/05/27 11:47:56;;;;;;;3.75;2.10;;;;;;;15.95;57.29;97382.09;5004634;28;20398;-65
2022/05/27 11:50:35;;;;;;;1.70;1.58;;;;;;;15.76;57.15;97390.47;5013628;28;20046;-66
2022/05/27 11:53:19;;;;;;;2.55;1.83;;;;;;;15.61;58.22;97394.44;5012350;28;20561;-66
2022/05/27 11:56:05;;;;;;;6.80;1.98;;;;;;;15.59;58.33;97393.22;4994212;28;20096;-67
2022/05/27 11:58:46;;;;;;;2.22;1.95;;;;;;;15.60;59.28;97392.09;4985028;28;20404;-67
2022/05/27 12:01:23;;;;;;;2.65;2.15;;;;;;;15.54;59.55;97401.38;5009443;28;20042;-67
2022/05/27 12:03:52;;;;;;;2.40;2.20;;;;;;;15.45;60.18;97393.38;5017042;28;20145;-66
2022/05/27 12:06:50;;;;;;;3.83;2.22;;;;;;;15.20;61.46;97403.00;4993496;28;20077;-67
2022/05/27 12:09:21;;;;;;;4.30;2.47;;;;;;;15.17;62.22;97404.41;5012407;28;20042;-67
2022/05/27 12:11:59;;;;;;;7.10;2.70;;;;;;;15.20;62.38;97411.78;5012613;28;20419;-67
2022/05/27 12:14:33;;;;;;;2.95;2.50;;;;;;;15.16;62.29;97408.19;5012745;28;20050;-67
2022/05/27 12:16:59;;;;;;;2.90;2.40;;;;;;;15.09;62.69;97412.41;4976581;28;20125;-67
2022/05/27 12:19:32;;;;;;;3.83;2.75;;;;;;;15.05;62.84;97414.94;4977842;28;20046;-66
2022/05/27 12:22:08;;;;;;;2.60;2.40;;;;;;;15.09;62.79;97415.88;4992464;28;20097;-65
2022/05/27 12:24:55;;;;;;;2.20;2.00;;;;;;;14.85;62.44;97413.66;4991707;28;20054;-65
2022/05/27 12:27:21;;;;;;;2.53;2.20;;;;;;;14.85;61.37;97416.34;4976693;28;20046;-65
2022/05/27 12:29:49;;;;;;;2.55;1.92;;;;;;;14.87;61.31;97421.38;4992466;28;20056;-65
2022/05/27 12:32:41;;;;;;;3.17;2.25;;;;;;;14.83;61.17;97420.44;4974933;28;20224;-65